Time;durP1;ratioP1;P1;durP2;ratioP2;P2;SDS_P1;SDS_P2;PMS_P1;PMS_P2;Temp;Humidity;BMP_temperature;BMP_pressure;BME280_temperature;BME280_humidity;BME280_pressure;Samples;Min_cycle;Max_cycle;Signal;HPM_P1;HPM_P2
2023/09/21 00:01:11;;;;;;;1.70;1.60;;;24.10;44.80;;;;;;5026273;28;20236;-64
2023/09/21 00:03:39;;;;;;;1.60;1.50;;;24.20;44.80;;;;;;5028700;28;20467;-64
2023/09/21 00:06:05;;;;;;;1.50;1.40;;;24.10;44.80;;;;;;5025175;28;20497;-65
2023/09/21 00:08:31;;;;;;;1.50;1.40;;;24.10;44.80;;;;;;5027963;28;20474;-66
2023/09/21 00:10:58;;;;;;;2.70;1.90;;;24.10;44.80;;;;;;5024541;28;20473;-62
2023/09/21 00:13:27;;;;;;;1.60;1.50;;;24.10;44.70;;;;;;5024809;28;20478;-62
2023/09/21 00:15:53;;;;;;;1.50;1.40;;;24.10;44.80;;;;;;5025667;28;20470;-66
2023/09/21 00:18:21;;;;;;;1.60;1.50;;;24.10;44.80;;;;;;5026032;28;20494;-62
2023/09/21 00:20:54;;;;;;;1.83;1.73;;;24.20;44.70;;;;;;5028002;28;20466;-63
2023/09/21 00:23:24;;;;;;;1.80;1.70;;;24.20;44.70;;;;;;5026541;28;20475;-63
2023/09/21 00:25:57;;;;;;;1.70;1.50;;;24.20;44.70;;;;;;5029401;28;20752;-62
2023/09/21 00:28:24;;;;;;;1.40;1.30;;;24.10;44.70;;;;;;5022387;28;20502;-65
2023/09/21 00:30:58;;;;;;;1.50;1.40;;;24.20;44.70;;;;;;5027398;28;20471;-63
2023/09/21 00:33:29;;;;;;;1.67;1.57;;;24.10;44.60;;;;;;5023612;28;20505;-63
2023/09/21 00:35:55;;;;;;;1.60;1.50;;;24.10;44.60;;;;;;5028933;28;20463;-63
2023/09/21 00:38:22;;;;;;;1.57;1.47;;;24.10;44.60;;;;;;5026539;28;20471;-66
2023/09/21 00:40:48;;;;;;;1.50;1.40;;;24.10;44.50;;;;;;5025799;28;20588;-65
2023/09/21 00:43:21;;;;;;;1.50;1.40;;;24.10;44.50;;;;;;5023565;28;20818;-63
2023/09/21 00:45:51;;;;;;;1.40;1.30;;;24.10;44.50;;;;;;5025887;28;20271;-64
2023/09/21 00:48:25;;;;;;;1.60;1.50;;;24.20;44.50;;;;;;5024785;28;20478;-63
2023/09/21 00:50:53;;;;;;;1.60;1.50;;;24.10;44.50;;;;;;5027719;28;20499;-67
2023/09/21 00:53:20;;;;;;;1.60;1.50;;;24.10;44.50;;;;;;5027365;28;20497;-65
2023/09/21 00:55:50;;;;;;;1.50;1.40;;;24.20;44.50;;;;;;5026291;28;20467;-62
2023/09/21 00:58:16;;;;;;;1.60;1.50;;;24.10;44.40;;;;;;5009438;28;21574;-62
2023/09/21 01:00:41;;;;;;;1.43;1.33;;;24.10;44.50;;;;;;5027480;28;20459;-63
2023/09/21 01:03:11;;;;;;;1.50;1.40;;;24.10;44.40;;;;;;5025153;28;20454;-63
2023/09/21 01:05:39;;;;;;;2.13;1.40;;;24.10;44.40;;;;;;5022677;28;20225;-64
2023/09/21 01:08:11;;;;;;;1.40;1.30;;;24.10;44.40;;;;;;5027510;28;20513;-62
2023/09/21 01:10:41;;;;;;;1.60;1.50;;;24.10;44.50;;;;;;5025329;28;20558;-67
2023/09/21 01:13:08;;;;;;;1.53;1.43;;;24.10;44.50;;;;;;5025230;28;20479;-66
2023/09/21 01:15:34;;;;;;;1.40;1.30;;;24.10;44.40;;;;;;5026039;28;20872;-65
2023/09/21 01:18:00;;;;;;;1.47;1.37;;;24.10;44.30;;;;;;5026046;28;20941;-65
2023/09/21 01:20:29;;;;;;;1.60;1.50;;;24.10;44.30;;;;;;5024227;28;20813;-64
2023/09/21 01:23:14;;;;;;;2.53;1.53;;;24.10;44.30;;;;;;5025180;28;20222;-65
2023/09/21 01:25:44;;;;;;;1.70;1.57;;;24.10;44.30;;;;;;5025696;28;20486;-66
2023/09/21 01:28:13;;;;;;;1.47;1.37;;;24.10;44.30;;;;;;5026606;28;20481;-65
2023/09/21 01:30:39;;;;;;;1.50;1.40;;;24.10;44.30;;;;;;5024798;28;20982;-64
2023/09/21 01:33:07;;;;;;;1.40;1.30;;;24.10;44.20;;;;;;5026403;28;20577;-63
2023/09/21 01:35:34;;;;;;;1.50;1.40;;;24.10;44.30;;;;;;5020803;28;20225;-67
2023/09/21 01:38:00;;;;;;;1.60;1.50;;;24.10;45.00;;;;;;5025545;28;20470;-64
2023/09/21 01:40:25;;;;;;;1.30;1.20;;;24.10;44.20;;;;;;5025313;28;20466;-65
2023/09/21 01:42:51;;;;;;;1.47;1.37;;;24.10;44.20;;;;;;5027079;28;20233;-63
2023/09/21 01:45:16;;;;;;;1.40;1.30;;;24.10;44.10;;;;;;5018825;28;20348;-67
2023/09/21 01:47:43;;;;;;;1.50;1.40;;;24.10;44.20;;;;;;5023042;28;20722;-63
2023/09/21 01:50:15;;;;;;;1.57;1.47;;;24.10;44.10;;;;;;5025174;28;20218;-64
2023/09/21 01:52:41;;;;;;;1.30;1.20;;;24.10;44.10;;;;;;5021272;28;20470;-66
2023/09/21 01:55:10;;;;;;;1.57;1.47;;;24.10;44.10;;;;;;5022426;28;20459;-65
2023/09/21 01:57:37;;;;;;;1.50;1.40;;;24.10;44.10;;;;;;5023965;28;20483;-62
2023/09/21 02:00:12;;;;;;;1.50;1.40;;;24.10;44.10;;;;;;5021592;28;20486;-64
2023/09/21 02:02:38;;;;;;;1.50;1.40;;;24.10;44.00;;;;;;5022890;28;20558;-63
2023/09/21 02:05:04;;;;;;;1.33;1.23;;;24.10;44.00;;;;;;5014347;28;20931;-66
2023/09/21 02:07:30;;;;;;;1.73;1.63;;;24.10;44.00;;;;;;5021223;28;20233;-64
2023/09/21 02:09:56;;;;;;;1.50;1.40;;;24.10;44.00;;;;;;5019590;28;22131;-65
2023/09/21 02:12:23;;;;;;;1.60;1.50;;;24.10;44.10;;;;;;5019158;28;20222;-66
2023/09/21 02:14:49;;;;;;;1.50;1.40;;;24.10;44.00;;;;;;5023332;28;20248;-67
2023/09/21 02:17:14;;;;;;;1.60;1.50;;;24.10;44.00;;;;;;5017784;28;21219;-67
2023/09/21 02:19:41;;;;;;;1.50;1.40;;;24.10;44.00;;;;;;5018487;28;20225;-67
2023/09/21 02:22:07;;;;;;;1.40;1.30;;;24.10;43.90;;;;;;5024331;28;20740;-62
2023/09/21 02:24:35;;;;;;;1.40;1.30;;;24.10;44.70;;;;;;5026548;28;21070;-64
2023/09/21 02:27:00;;;;;;;1.47;1.37;;;24.10;43.90;;;;;;5024665;28;20475;-65
2023/09/21 02:29:28;;;;;;;1.70;1.60;;;24.10;44.70;;;;;;5026044;28;20545;-66
2023/09/21 02:31:53;;;;;;;1.50;1.40;;;24.10;43.90;;;;;;5023512;28;20754;-65
2023/09/21 02:34:19;;;;;;;1.30;1.20;;;24.10;43.90;;;;;;5024023;28;21027;-63
2023/09/21 02:36:45;;;;;;;1.50;1.40;;;24.00;43.80;;;;;;5021792;28;20337;-62
2023/09/21 02:39:11;;;;;;;1.50;1.40;;;24.10;43.90;;;;;;5023180;28;20271;-63
2023/09/21 02:41:37;;;;;;;1.70;1.50;;;24.10;44.70;;;;;;5018733;28;20459;-66
2023/09/21 02:44:04;;;;;;;1.40;1.30;;;24.10;43.90;;;;;;5018672;28;20448;-64
2023/09/21 02:46:30;;;;;;;1.40;1.30;;;24.10;43.80;;;;;;5023036;28;20222;-66
2023/09/21 02:48:57;;;;;;;1.60;1.50;;;24.10;43.80;;;;;;5018401;28;20614;-62
2023/09/21 02:51:23;;;;;;;1.33;1.23;;;24.00;43.70;;;;;;5020560;28;20670;-65
2023/09/21 02:53:49;;;;;;;1.70;1.60;;;24.00;43.10;;;;;;5023706;28;20447;-66
2023/09/21 02:56:19;;;;;;;1.77;1.67;;;24.10;43.80;;;;;;5025138;28;20493;-63
2023/09/21 02:58:45;;;;;;;1.30;1.20;;;24.00;43.70;;;;;;5028985;28;20974;-62
2023/09/21 03:01:11;;;;;;;1.40;1.30;;;24.00;43.70;;;;;;5026611;28;20551;-65
2023/09/21 03:03:37;;;;;;;1.37;1.27;;;24.00;43.70;;;;;;5028332;28;20216;-62
2023/09/21 03:06:03;;;;;;;1.57;1.47;;;24.10;43.80;;;;;;5026874;28;20454;-61
2023/09/21 03:08:28;;;;;;;2.47;1.23;;;24.00;43.70;;;;;;5023900;28;20429;-64
2023/09/21 03:10:55;;;;;;;3.43;1.47;;;24.00;43.70;;;;;;5026995;28;20458;-65
2023/09/21 03:13:21;;;;;;;2.20;1.50;;;24.00;43.70;;;;;;5022210;28;20840;-65
2023/09/21 03:15:49;;;;;;;1.60;1.50;;;24.00;43.70;;;;;;5021697;28;20455;-66
2023/09/21 03:18:15;;;;;;;1.53;1.43;;;24.00;43.70;;;;;;5023281;28;21219;-62
2023/09/21 03:20:43;;;;;;;1.70;1.60;;;24.00;44.20;;;;;;5024619;28;20582;-61
2023/09/21 03:23:10;;;;;;;1.60;1.50;;;24.00;43.60;;;;;;5022991;28;20935;-62
2023/09/21 03:25:40;;;;;;;1.83;1.47;;;24.00;43.60;;;;;;5024959;28;20487;-65
2023/09/21 03:28:13;;;;;;;1.70;1.60;;;24.00;43.60;;;;;;5023528;28;20478;-65
2023/09/21 03:30:39;;;;;;;1.80;1.70;;;24.00;43.60;;;;;;5025138;28;20463;-65
2023/09/21 03:33:09;;;;;;;1.50;1.40;;;24.00;43.60;;;;;;5024517;28;20470;-63
2023/09/21 03:35:37;;;;;;;1.30;1.20;;;24.00;43.50;;;;;;5022211;28;20470;-62
2023/09/21 03:38:04;;;;;;;1.37;1.27;;;24.00;43.50;;;;;;5021433;28;20495;-64
2023/09/21 03:40:31;;;;;;;1.73;1.63;;;24.00;43.50;;;;;;5022259;28;21246;-62
2023/09/21 03:42:57;;;;;;;1.50;1.40;;;24.00;43.50;;;;;;5024828;28;20546;-64
2023/09/21 03:45:25;;;;;;;1.60;1.50;;;24.00;43.50;;;;;;5024638;28;20519;-67
2023/09/21 03:47:52;;;;;;;1.40;1.30;;;24.00;43.50;;;;;;5024796;28;20264;-62
2023/09/21 03:50:18;;;;;;;1.40;1.30;;;24.00;43.50;;;;;;5018878;28;20517;-66
2023/09/21 03:52:43;;;;;;;1.57;1.47;;;24.00;43.50;;;;;;5027495;28;20912;-64
2023/09/21 03:55:12;;;;;;;1.50;1.40;;;24.00;43.50;;;;;;5022109;28;20225;-63
2023/09/21 03:57:38;;;;;;;1.60;1.50;;;24.00;43.50;;;;;;5021119;28;20226;-62
2023/09/21 04:00:19;;;;;;;2.30;1.23;;;24.00;43.50;;;;;;5024236;28;20443;-66
2023/09/21 04:02:45;;;;;;;1.60;1.47;;;24.00;43.40;;;;;;5019753;28;20494;-65
2023/09/21 04:05:18;;;;;;;3.10;1.60;;;24.00;43.50;;;;;;5017500;28;20474;-61
2023/09/21 04:07:47;;;;;;;1.50;1.40;;;24.00;43.50;;;;;;5022384;28;20502;-65
2023/09/21 04:10:13;;;;;;;1.67;1.57;;;24.00;43.40;;;;;;5028785;28;20455;-65
2023/09/21 04:12:39;;;;;;;1.40;1.30;;;24.00;43.30;;;;;;5028281;28;20455;-64
2023/09/21 04:15:08;;;;;;;3.97;1.40;;;24.00;43.30;;;;;;5030596;28;20914;-65
2023/09/21 04:17:35;;;;;;;1.40;1.30;;;24.00;43.30;;;;;;5032773;28;20250;-63
2023/09/21 04:20:00;;;;;;;1.60;1.50;;;24.00;43.30;;;;;;5030206;28;20518;-66
2023/09/21 04:22:26;;;;;;;1.47;1.37;;;24.00;43.20;;;;;;5024819;28;20462;-64
2023/09/21 04:24:52;;;;;;;1.53;1.43;;;24.00;43.20;;;;;;5014105;28;20252;-65
2023/09/21 04:27:18;;;;;;;1.70;1.60;;;24.00;43.10;;;;;;5017832;28;20863;-62
2023/09/21 04:29:43;;;;;;;1.50;1.40;;;24.00;43.20;;;;;;5021421;28;20697;-66
2023/09/21 04:32:09;;;;;;;1.90;1.80;;;24.00;43.20;;;;;;5020546;28;20681;-63
2023/09/21 04:34:36;;;;;;;1.40;1.30;;;24.00;43.30;;;;;;5024589;28;20855;-63
2023/09/21 04:37:02;;;;;;;1.47;1.37;;;24.00;43.50;;;;;;5023226;28;20361;-63
2023/09/21 04:39:27;;;;;;;1.47;1.37;;;24.00;43.60;;;;;;5026916;28;20465;-64
2023/09/21 04:41:53;;;;;;;1.40;1.30;;;24.00;43.70;;;;;;5025072;28;20455;-63
2023/09/21 04:44:18;;;;;;;1.60;1.50;;;24.00;43.70;;;;;;5025508;28;20323;-63
2023/09/21 04:46:44;;;;;;;1.50;1.40;;;24.00;43.80;;;;;;5021587;28;20880;-64
2023/09/21 04:49:10;;;;;;;1.40;1.30;;;24.00;43.80;;;;;;5026707;28;20425;-65
2023/09/21 04:51:35;;;;;;;1.50;1.40;;;24.00;43.90;;;;;;5024090;28;20244;-62
2023/09/21 04:54:01;;;;;;;1.57;1.47;;;24.00;43.90;;;;;;5026413;28;20252;-62
2023/09/21 04:56:27;;;;;;;2.30;1.70;;;24.00;43.90;;;;;;5025429;28;20222;-62
2023/09/21 04:58:55;;;;;;;1.50;1.40;;;24.00;43.90;;;;;;5024193;28;20221;-64
2023/09/21 05:01:24;;;;;;;1.33;1.23;;;24.00;43.90;;;;;;5024990;28;20222;-66
2023/09/21 05:03:50;;;;;;;1.80;1.70;;;24.10;44.00;;;;;;5026786;28;20476;-64
2023/09/21 05:06:18;;;;;;;2.00;1.80;;;24.10;44.10;;;;;;5023769;28;20459;-63
2023/09/21 05:08:44;;;;;;;1.60;1.50;;;24.00;44.00;;;;;;5028285;28;20824;-66
2023/09/21 05:11:10;;;;;;;1.47;1.33;;;24.10;44.10;;;;;;5025262;28;20456;-62
2023/09/21 05:13:36;;;;;;;4.17;1.60;;;24.10;44.90;;;;;;5027361;28;20305;-64
2023/09/21 05:16:03;;;;;;;1.57;1.47;;;24.10;44.10;;;;;;5014351;28;20222;-62
2023/09/21 05:18:29;;;;;;;1.70;1.60;;;24.10;44.20;;;;;;5018703;28;21057;-66
2023/09/21 05:20:55;;;;;;;1.60;1.50;;;24.10;44.00;;;;;;5017298;28;20513;-65
2023/09/21 05:23:20;;;;;;;1.83;1.60;;;24.10;44.00;;;;;;5023668;28;20478;-63
2023/09/21 05:25:46;;;;;;;2.13;1.93;;;24.10;43.80;;;;;;5022131;28;20232;-61
2023/09/21 05:28:12;;;;;;;1.50;1.40;;;24.10;43.50;;;;;;5024297;28;20674;-70
2023/09/21 05:30:38;;;;;;;1.80;1.70;;;24.10;43.70;;;;;;5021695;28;20248;-67
2023/09/21 05:33:05;;;;;;;1.80;1.70;;;24.10;43.80;;;;;;5019533;28;20226;-62
2023/09/21 05:35:31;;;;;;;5.50;2.30;;;24.10;43.90;;;;;;5021421;28;20455;-63
2023/09/21 05:37:57;;;;;;;1.77;1.50;;;24.10;44.00;;;;;;5024632;28;20521;-61
2023/09/21 05:40:22;;;;;;;1.60;1.50;;;24.20;44.20;;;;;;5023557;28;20230;-65
2023/09/21 05:42:48;;;;;;;3.60;2.20;;;24.20;44.20;;;;;;5024725;28;20238;-62
2023/09/21 05:45:13;;;;;;;11.73;8.07;;;24.20;44.30;;;;;;5023080;28;20210;-64
2023/09/21 05:47:39;;;;;;;10.60;6.30;;;24.20;44.40;;;;;;5024291;28;20254;-66
2023/09/21 05:50:05;;;;;;;39.00;22.27;;;24.20;44.20;;;;;;5017717;28;20268;-65
2023/09/21 05:52:34;;;;;;;38.87;18.03;;;24.20;44.30;;;;;;5022899;28;20295;-63
2023/09/21 05:55:00;;;;;;;40.80;20.53;;;24.20;44.40;;;;;;5029085;28;20510;-65
2023/09/21 05:57:27;;;;;;;38.47;20.60;;;24.20;44.40;;;;;;5024793;28;20863;-61
2023/09/21 05:59:52;;;;;;;37.77;19.20;;;24.20;44.50;;;;;;5027230;28;20493;-64
2023/09/21 06:02:19;;;;;;;36.10;19.83;;;24.20;44.60;;;;;;5025138;28;20450;-71
2023/09/21 06:04:45;;;;;;;32.70;18.50;;;24.20;44.60;;;;;;5027667;28;20650;-65
2023/09/21 06:07:11;;;;;;;32.17;16.57;;;24.20;44.70;;;;;;5026788;28;20929;-60
2023/09/21 06:09:37;;;;;;;29.20;16.43;;;24.20;44.70;;;;;;5026651;28;20478;-71
2023/09/21 06:12:02;;;;;;;27.00;14.80;;;24.20;44.80;;;;;;5023331;28;20544;-63
2023/09/21 06:14:28;;;;;;;24.73;14.37;;;24.20;44.80;;;;;;5026929;28;20300;-61
2023/09/21 06:16:54;;;;;;;27.60;14.80;;;24.30;45.00;;;;;;5025891;28;20226;-62
2023/09/21 06:19:19;;;;;;;24.90;13.70;;;24.20;45.00;;;;;;5026155;28;20210;-63
2023/09/21 06:21:51;;;;;;;18.40;12.23;;;24.20;45.00;;;;;;5027844;28;20229;-71
2023/09/21 06:24:18;;;;;;;18.10;11.93;;;24.30;45.10;;;;;;5026320;28;20226;-62
2023/09/21 06:26:44;;;;;;;23.50;12.07;;;24.20;45.10;;;;;;5024829;28;20460;-69
2023/09/21 06:29:10;;;;;;;16.70;11.03;;;24.30;45.20;;;;;;5025763;28;20479;-66
2023/09/21 06:31:36;;;;;;;20.73;11.07;;;24.20;45.10;;;;;;5022437;28;20454;-62
2023/09/21 06:34:01;;;;;;;14.00;10.00;;;24.30;45.20;;;;;;5026846;28;20467;-62
2023/09/21 06:36:33;;;;;;;16.13;10.20;;;24.30;45.20;;;;;;5025795;28;20218;-64
2023/09/21 06:38:58;;;;;;;15.27;10.30;;;24.30;45.20;;;;;;5022896;28;20221;-68
2023/09/21 06:41:25;;;;;;;13.43;9.47;;;24.30;45.30;;;;;;5026171;28;20471;-61
2023/09/21 06:43:51;;;;;;;13.40;9.00;;;24.30;45.30;;;;;;5025705;28;20221;-69
2023/09/21 06:46:17;;;;;;;13.80;8.87;;;24.30;45.20;;;;;;5023086;28;20470;-62
2023/09/21 06:48:42;;;;;;;11.13;7.97;;;24.30;45.30;;;;;;5028631;28;20321;-64
2023/09/21 06:51:08;;;;;;;13.60;8.80;;;24.30;45.30;;;;;;5026363;28;20528;-63
2023/09/21 06:53:37;;;;;;;11.17;7.27;;;24.30;45.30;;;;;;5023754;28;20308;-67
2023/09/21 06:56:03;;;;;;;9.00;6.47;;;24.30;45.30;;;;;;5020874;28;20218;-65
2023/09/21 06:58:30;;;;;;;10.13;6.80;;;24.30;45.30;;;;;;5021359;28;20506;-66
2023/09/21 07:00:59;;;;;;;10.60;7.17;;;24.30;45.30;;;;;;5022410;28;20521;-63
2023/09/21 07:03:25;;;;;;;9.53;6.10;;;24.30;45.30;;;;;;5022616;28;20478;-67
2023/09/21 07:05:51;;;;;;;8.60;6.47;;;24.30;45.50;;;;;;5024889;28;20467;-65
2023/09/21 07:08:18;;;;;;;11.50;6.40;;;24.30;45.50;;;;;;5026877;28;20479;-61
2023/09/21 07:10:44;;;;;;;10.80;6.87;;;24.30;45.50;;;;;;5027254;28;20225;-63
2023/09/21 07:13:10;;;;;;;11.20;6.57;;;24.30;45.50;;;;;;5024267;28;20814;-65
2023/09/21 07:15:40;;;;;;;6.23;5.63;;;24.30;45.50;;;;;;5023761;28;20311;-71
2023/09/21 07:18:06;;;;;;;8.10;6.50;;;24.30;45.60;;;;;;5026510;28;20471;-63
2023/09/21 07:20:32;;;;;;;6.07;5.47;;;24.30;45.60;;;;;;5013496;28;20522;-61
2023/09/21 07:22:58;;;;;;;6.10;5.50;;;24.30;45.60;;;;;;5028705;28;20478;-64
2023/09/21 07:25:25;;;;;;;7.27;6.03;;;24.30;45.60;;;;;;5025169;28;20574;-72
2023/09/21 07:27:54;;;;;;;7.13;5.80;;;24.30;45.60;;;;;;5025708;28;20321;-64
2023/09/21 07:30:21;;;;;;;8.80;6.07;;;24.30;45.60;;;;;;5023573;28;20697;-68
2023/09/21 07:32:46;;;;;;;6.23;4.60;;;24.30;45.70;;;;;;5026520;28;20460;-66
2023/09/21 07:35:14;;;;;;;6.40;5.17;;;24.30;45.70;;;;;;5025173;28;20463;-62
2023/09/21 07:37:45;;;;;;;4.73;4.37;;;24.30;45.70;;;;;;5026111;28;20236;-62
2023/09/21 07:40:14;;;;;;;4.63;4.33;;;24.30;45.70;;;;;;5022873;28;21125;-69
2023/09/21 07:42:42;;;;;;;3.97;3.70;;;24.30;45.70;;;;;;5025061;28;20463;-64
2023/09/21 07:45:09;;;;;;;5.33;4.83;;;24.30;45.70;;;;;;5024241;28;20476;-63
2023/09/21 07:47:34;;;;;;;4.87;4.03;;;24.30;45.80;;;;;;5022573;28;20467;-65
2023/09/21 07:50:00;;;;;;;4.63;4.13;;;24.30;45.70;;;;;;5022969;28;20811;-68
2023/09/21 07:52:26;;;;;;;4.47;4.00;;;24.30;45.70;;;;;;5025051;28;20393;-68
2023/09/21 07:54:53;;;;;;;4.00;3.70;;;24.30;45.70;;;;;;5026239;28;20237;-64
2023/09/21 07:57:18;;;;;;;4.83;4.40;;;24.40;45.80;;;;;;5024607;28;20467;-69
2023/09/21 07:59:44;;;;;;;4.37;3.97;;;24.40;45.80;;;;;;5024571;28;21006;-66
2023/09/21 08:02:09;;;;;;;4.20;3.80;;;24.30;45.70;;;;;;5026600;28;21945;-63
2023/09/21 08:04:36;;;;;;;3.73;3.20;;;24.30;45.70;;;;;;5024784;28;20741;-69
2023/09/21 08:07:05;;;;;;;4.17;3.77;;;24.40;45.90;;;;;;5025763;28;20241;-71
2023/09/21 08:09:31;;;;;;;3.97;3.67;;;24.40;45.90;;;;;;5027247;28;20545;-66
2023/09/21 08:11:56;;;;;;;3.27;3.00;;;24.30;45.80;;;;;;5028469;28;20480;-69
2023/09/21 08:14:23;;;;;;;3.97;3.63;;;24.40;45.90;;;;;;5031858;28;20558;-64
2023/09/21 08:16:50;;;;;;;4.30;3.10;;;24.40;45.90;;;;;;5027474;28;20225;-65
2023/09/21 08:19:15;;;;;;;3.13;2.93;;;24.40;45.90;;;;;;5025085;28;20512;-63
2023/09/21 08:21:41;;;;;;;3.40;3.10;;;24.40;45.90;;;;;;5031078;28;20833;-66
2023/09/21 08:24:09;;;;;;;3.20;2.90;;;24.40;45.90;;;;;;5029832;28;20275;-61
2023/09/21 08:26:35;;;;;;;3.10;2.87;;;24.40;45.90;;;;;;5029052;28;20218;-69
2023/09/21 08:29:00;;;;;;;3.17;2.97;;;24.40;46.00;;;;;;5028123;28;20470;-63
2023/09/21 08:31:27;;;;;;;2.60;2.40;;;24.30;45.90;;;;;;5023899;28;20962;-68
2023/09/21 08:33:53;;;;;;;2.57;2.10;;;24.40;46.00;;;;;;5028076;28;20594;-61
2023/09/21 08:36:19;;;;;;;2.70;2.50;;;24.40;46.00;;;;;;5028414;28;20467;-65
2023/09/21 08:38:45;;;;;;;2.87;2.67;;;24.40;46.00;;;;;;5028271;28;20229;-64
2023/09/21 08:41:11;;;;;;;2.70;2.50;;;24.40;46.00;;;;;;5026013;28;20229;-72
2023/09/21 08:43:37;;;;;;;2.97;2.77;;;24.40;46.00;;;;;;5027416;28;20546;-60
2023/09/21 08:46:04;;;;;;;2.43;2.27;;;24.40;46.00;;;;;;5026810;28;20549;-70
2023/09/21 08:48:31;;;;;;;2.67;2.47;;;24.40;46.00;;;;;;5028791;28;20485;-62
2023/09/21 08:51:00;;;;;;;3.20;3.00;;;24.40;46.00;;;;;;5027071;28;20474;-63
2023/09/21 08:53:26;;;;;;;2.70;2.50;;;24.40;46.00;;;;;;5025135;28;20488;-63
2023/09/21 08:55:55;;;;;;;2.60;2.40;;;24.40;46.10;;;;;;5023420;28;20470;-69
2023/09/21 08:58:23;;;;;;;2.60;2.40;;;24.40;46.10;;;;;;5029144;28;20499;-63
2023/09/21 09:00:53;;;;;;;2.53;2.33;;;24.40;46.00;;;;;;5029258;28;20514;-66
2023/09/21 09:03:26;;;;;;;2.07;1.97;;;24.40;46.10;;;;;;5028410;28;20830;-64
2023/09/21 09:05:55;;;;;;;2.80;2.60;;;24.40;46.00;;;;;;5026186;28;20551;-65
2023/09/21 09:08:22;;;;;;;2.67;2.53;;;24.40;46.10;;;;;;5028422;28;20482;-69
2023/09/21 09:10:48;;;;;;;2.50;2.30;;;24.40;46.10;;;;;;5028734;28;20458;-64
2023/09/21 09:13:13;;;;;;;2.10;1.87;;;24.40;46.20;;;;;;5028974;28;22259;-64
2023/09/21 09:15:41;;;;;;;2.47;2.27;;;24.40;46.10;;;;;;5028825;28;20529;-62
2023/09/21 09:18:08;;;;;;;2.83;2.63;;;24.40;46.10;;;;;;5028758;28;20284;-61
2023/09/21 09:20:36;;;;;;;1.90;1.80;;;24.40;46.10;;;;;;5026282;28;20455;-67
2023/09/21 09:23:03;;;;;;;2.00;1.90;;;24.40;46.20;;;;;;5029824;28;20807;-64
2023/09/21 09:25:28;;;;;;;2.30;2.20;;;24.40;46.10;;;;;;5027811;28;20498;-67
2023/09/21 09:27:55;;;;;;;2.30;2.10;;;24.40;46.20;;;;;;5029157;28;20971;-67
2023/09/21 09:30:23;;;;;;;1.97;1.87;;;24.40;46.20;;;;;;5026708;28;20230;-69
2023/09/21 09:32:51;;;;;;;1.93;1.83;;;24.40;46.20;;;;;;5014006;28;20871;-65
2023/09/21 09:35:17;;;;;;;1.77;1.67;;;24.40;46.20;;;;;;5026848;28;20471;-68
2023/09/21 09:37:44;;;;;;;2.37;2.27;;;24.40;46.20;;;;;;5029801;28;20492;-64
2023/09/21 09:40:14;;;;;;;1.90;1.80;;;24.40;46.20;;;;;;5028457;28;21170;-64
2023/09/21 09:42:41;;;;;;;2.23;2.13;;;24.40;46.30;;;;;;5027820;28;20501;-63
2023/09/21 09:45:25;;;;;;;1.93;1.80;;;24.40;46.30;;;;;;5026741;28;20475;-65
2023/09/21 09:48:01;;;;;;;2.00;1.90;;;24.40;46.20;;;;;;5026345;28;20549;-61
2023/09/21 09:50:33;;;;;;;2.00;1.90;;;24.40;46.20;;;;;;5025720;28;21007;-67
2023/09/21 09:53:05;;;;;;;1.80;1.70;;;24.40;46.30;;;;;;5028040;28;20471;-65
2023/09/21 09:55:33;;;;;;;1.63;1.53;;;24.40;46.30;;;;;;5027374;28;20573;-64
2023/09/21 09:58:03;;;;;;;2.10;2.00;;;24.40;46.30;;;;;;5029073;28;20537;-61
2023/09/21 10:00:29;;;;;;;1.97;1.87;;;24.40;46.30;;;;;;5026522;28;20473;-62
2023/09/21 10:02:59;;;;;;;2.17;2.07;;;24.30;46.20;;;;;;5024973;28;20459;-67
2023/09/21 10:05:28;;;;;;;1.80;1.70;;;24.40;46.40;;;;;;5025859;28;20459;-65
2023/09/21 10:08:00;;;;;;;1.93;1.83;;;24.40;46.40;;;;;;5028447;28;20490;-67
2023/09/21 10:10:30;;;;;;;1.77;1.67;;;24.30;46.30;;;;;;5026788;28;20966;-65
2023/09/21 10:12:57;;;;;;;1.80;1.70;;;24.40;46.50;;;;;;5025949;28;20885;-69
2023/09/21 10:15:24;;;;;;;1.90;1.80;;;24.30;46.30;;;;;;5027553;28;20474;-63
2023/09/21 10:17:54;;;;;;;1.77;1.67;;;24.40;46.50;;;;;;5029542;28;20463;-62
2023/09/21 10:20:27;;;;;;;1.77;1.67;;;24.30;46.40;;;;;;5027112;28;20482;-71
2023/09/21 10:22:53;;;;;;;1.47;1.37;;;24.40;46.50;;;;;;5020059;28;20502;-64
2023/09/21 10:25:45;;;;;;;1.50;1.40;;;24.30;46.30;;;;;;5015816;28;20548;-64
2023/09/21 10:28:29;;;;;;;1.60;1.50;;;24.30;46.30;;;;;;5018522;28;21001;-69
2023/09/21 10:31:09;;;;;;;1.90;1.80;;;24.30;46.30;;;;;;5000500;28;20528;-62
2023/09/21 10:33:58;;;;;;;1.70;1.60;;;24.40;46.60;;;;;;5024095;28;20459;-67
2023/09/21 10:36:27;;;;;;;2.43;1.80;;;24.40;46.60;;;;;;5006713;28;20505;-67
2023/09/21 10:39:05;;;;;;;1.80;1.70;;;24.30;46.50;;;;;;5026275;28;20810;-63
2023/09/21 10:41:31;;;;;;;1.33;1.23;;;24.30;46.40;;;;;;5023340;28;20462;-62
2023/09/21 10:43:56;;;;;;;1.70;1.60;;;24.30;46.40;;;;;;5026972;28;20494;-64
2023/09/21 10:46:26;;;;;;;1.60;1.50;;;24.40;46.60;;;;;;5024532;28;20217;-61
2023/09/21 10:49:13;;;;;;;1.73;1.50;;;24.40;46.50;;;;;;5029289;28;20229;-60
2023/09/21 10:51:39;;;;;;;1.70;1.60;;;24.30;46.50;;;;;;5024593;28;20454;-63
2023/09/21 10:54:17;;;;;;;1.60;1.50;;;24.30;46.50;;;;;;5025497;28;20771;-68
2023/09/21 10:56:42;;;;;;;1.40;1.30;;;24.40;46.70;;;;;;5024016;28;21021;-69
2023/09/21 10:59:08;;;;;;;1.60;1.43;;;24.30;46.50;;;;;;5023543;28;20451;-69
2023/09/21 11:01:35;;;;;;;1.50;1.40;;;24.30;46.50;;;;;;5023775;28;20308;-63
2023/09/21 11:04:02;;;;;;;1.50;1.40;;;24.30;46.50;;;;;;5020730;28;20226;-63
2023/09/21 11:06:28;;;;;;;1.80;1.70;;;24.30;46.50;;;;;;5016702;28;20467;-62
2023/09/21 11:08:55;;;;;;;4.50;1.90;;;24.40;46.60;;;;;;5013063;28;20798;-60
2023/09/21 11:11:21;;;;;;;1.60;1.50;;;24.40;46.60;;;;;;5024382;28;20538;-63
2023/09/21 11:13:51;;;;;;;1.40;1.30;;;24.30;46.50;;;;;;5023167;28;20467;-62
2023/09/21 11:16:18;;;;;;;1.40;1.30;;;24.30;46.50;;;;;;5024286;28;20470;-62
2023/09/21 11:18:44;;;;;;;1.60;1.50;;;24.30;46.60;;;;;;5025553;28;20470;-66
2023/09/21 11:21:11;;;;;;;2.10;2.00;;;24.30;46.60;;;;;;5026061;28;20466;-68
2023/09/21 11:23:40;;;;;;;1.57;1.47;;;24.30;46.60;;;;;;5026007;28;20477;-66
2023/09/21 11:26:10;;;;;;;1.60;1.50;;;24.30;46.60;;;;;;5024123;28;20459;-62
2023/09/21 11:28:37;;;;;;;1.50;1.40;;;24.30;46.60;;;;;;5025692;28;20989;-64
2023/09/21 11:31:05;;;;;;;1.47;1.37;;;24.30;46.60;;;;;;5023377;28;20998;-61
2023/09/21 11:33:34;;;;;;;1.53;1.43;;;24.30;46.60;;;;;;5026919;28;22056;-62
2023/09/21 11:35:59;;;;;;;1.47;1.37;;;24.30;46.60;;;;;;5026209;28;20488;-61
2023/09/21 11:38:25;;;;;;;1.30;1.20;;;24.30;46.60;;;;;;5023458;28;22021;-62
2023/09/21 11:40:52;;;;;;;1.60;1.50;;;24.30;46.60;;;;;;5025597;28;20895;-62
2023/09/21 11:43:17;;;;;;;1.30;1.20;;;24.30;46.70;;;;;;5027105;28;20225;-62
2023/09/21 11:45:46;;;;;;;1.30;1.20;;;24.30;46.70;;;;;;5028505;28;20510;-65
2023/09/21 11:48:12;;;;;;;1.40;1.30;;;24.30;46.70;;;;;;5030805;28;20245;-65
2023/09/21 11:50:38;;;;;;;1.53;1.43;;;24.30;46.70;;;;;;5027572;28;20464;-61
2023/09/21 11:53:07;;;;;;;1.40;1.30;;;24.30;46.70;;;;;;5028905;28;20264;-69
2023/09/21 11:55:33;;;;;;;1.63;1.53;;;24.30;46.70;;;;;;5027931;28;20475;-64
2023/09/21 11:58:15;;;;;;;1.50;1.40;;;24.30;46.70;;;;;;5030743;28;20798;-66
2023/09/21 12:00:45;;;;;;;1.20;1.10;;;24.30;46.70;;;;;;5029144;28;21014;-66
2023/09/21 12:03:16;;;;;;;1.40;1.30;;;24.30;46.80;;;;;;5030084;28;20548;-62
2023/09/21 12:05:44;;;;;;;1.20;1.10;;;24.30;46.80;;;;;;5028947;28;20852;-62
2023/09/21 12:08:19;;;;;;;1.50;1.40;;;24.30;46.80;;;;;;5030322;28;20458;-65
2023/09/21 12:10:45;;;;;;;1.50;1.40;;;24.30;46.90;;;;;;5026819;28;20883;-70
2023/09/21 12:13:11;;;;;;;1.60;1.50;;;24.30;46.80;;;;;;5031264;28;20501;-65
2023/09/21 12:15:38;;;;;;;1.40;1.30;;;24.30;46.80;;;;;;5023259;28;20462;-64
2023/09/21 12:18:07;;;;;;;1.50;1.40;;;24.30;46.80;;;;;;5030888;28;20475;-65
2023/09/21 12:20:32;;;;;;;1.40;1.30;;;24.30;46.90;;;;;;5017243;28;20797;-66
2023/09/21 12:22:58;;;;;;;1.50;1.40;;;24.30;46.80;;;;;;5028289;28;20482;-63
2023/09/21 12:25:26;;;;;;;1.43;1.33;;;24.30;46.80;;;;;;5027329;28;20233;-65
2023/09/21 12:27:52;;;;;;;1.80;1.70;;;24.30;46.80;;;;;;5030469;28;20241;-64
2023/09/21 12:30:18;;;;;;;1.50;1.40;;;24.30;46.90;;;;;;5027482;28;20470;-68
2023/09/21 12:32:43;;;;;;;1.43;1.33;;;24.30;46.90;;;;;;5032465;28;20732;-63
2023/09/21 12:35:11;;;;;;;1.80;1.70;;;24.30;46.90;;;;;;5028242;28;20225;-69
2023/09/21 12:37:39;;;;;;;1.40;1.30;;;24.30;46.80;;;;;;5029957;28;20248;-65
2023/09/21 12:40:12;;;;;;;1.50;1.40;;;24.30;46.90;;;;;;5029393;28;20448;-68
2023/09/21 12:42:42;;;;;;;1.60;1.50;;;24.30;46.90;;;;;;5027086;28;20471;-65
2023/09/21 12:45:09;;;;;;;1.77;1.67;;;24.30;46.90;;;;;;5013919;28;20485;-61
2023/09/21 12:47:34;;;;;;;1.30;1.20;;;24.30;46.90;;;;;;5030449;28;20471;-62